Tiempo atmosférico en la estación meteorológica de Tejeda, Cruz de Tejeda, Las Palmas (1514 m.)



Fecha
DESCASC
Temp. máxima en grados centígrados (hora)
DESCASC
Temp. mínima en grados centígrados (hora)
DESCASC
Temp. media en grados centígrados
DESCASC
Racha de viento máxima en m/sg (hora)
DESCASC
Velocidad máxima media en intervalos de 10 minutos(hora)
DESCASC
Precipitaciones diarias en mm
DESCASC
Precipitaciones de 00:00 a 06:00 en mm
DESCASC
Precipitaciones de 06:00 a 12:00 en mm
DESCASC
Precipitaciones de 12:00 a 18:00 en mm
DESCASC
Precipitaciones de 18:00 a 24:00 en mm
DESCASC
13-10-2019 19.7 (14:10) 10.3 (21:20) 15 7.78 (12:50) 3.61 (12:50) 0 0 0 0 0
12-10-2019 19 (16:00) 9.2 (03:00) 14.1 6.94 (03:10) 3.61 (17:20) 0 0 0 0 0
11-10-2019 19.2 (15:10) 9.3 (22:20) 14.3 8.61 (17:00) 5 (17:00) 0 0 0 0 0
10-10-2019 19.5 (11:00) 12.3 (00:00) 15.9 7.5 (16:50) 3.89 (17:30) 0 0 0 0 0
09-10-2019 23.6 (12:40) 15.8 (00:00) 19.7 6.39 (17:00) 3.33 (07:00) 0 0 0 0 0
08-10-2019 26.4 (13:30) 17.6 (00:00) 22 7.78 (12:50) 5 (04:50) 0 0 0 0 0
07-10-2019 26.8 (16:20) 16.7 (00:00) 21.8 8.89 (12:50) 4.17 (12:50) 0 0 0 0 0
06-10-2019 24.5 (15:50) 13.8 (00:00) 19.2 11.94 (03:20) 8.33 (06:30) 0 0 0 0 0
05-10-2019 19.9 (12:40) 14.5 (00:00) 17.2 13.89 (10:20) 7.22 (04:20) 0 0 0 0 0
04-10-2019 23 (15:30) 17.5 (00:00) 20.3 18.06 (16:50) 8.61 (16:40) 0 0 0 0 0
03-10-2019 24.9 (13:50) 18.3 (00:00) 21.6 17.78 (21:40) 6.94 (23:59) 0 0 0 0 0
02-10-2019 27.6 (14:00) 22.1 (00:00) 24.9 7.78 (11:50) 4.72 (21:20) 0 0 0 0 0
01-10-2019 29 (16:40) 22.6 (00:00) 25.8 5.28 (13:40) 3.61 (22:10) 0 0 0 0 0
30-09-2019 32.2 (15:20) 22.9 (00:00) 27.6 7.5 (03:50) 5 (06:40) 0 0 0 0 0
29-09-2019 30.5 (15:50) 21.2 (00:00) 25.9 5.83 (21:50) 3.61 (21:10) 0 0 0 0 0
28-09-2019 27.5 (13:50) 20.7 (00:00) 24.1 6.94 (15:50) 3.89 (15:50) 0 0 0 0 0
27-09-2019 26.7 (13:40) 20.9 (00:00) 23.8 8.61 (13:50) 4.17 (14:30) 0 0 0 0 0
26-09-2019 26.2 (17:00) 16.3 (00:00) 21.3 8.33 (16:00) 4.17 (14:10) 0 0 0 0 0
25-09-2019 22.2 (18:30) 15.1 (00:00) 18.7 6.67 (00:20) 5 (00:40) 0 0 0 0 0
24-09-2019 21.8 (13:40) 15 (00:00) 18.4 8.33 (23:40) 6.39 (23:20) 0 0 0 0 0
23-09-2019 22.7 (16:10) 13.7 (00:00) 18.2 10.83 (00:50) 5.83 (00:40) 0.2 0.2 0 0 0
22-09-2019 20.2 (15:00) 13.3 (00:00) 16.8 10.83 (23:30) 7.78 (06:40) 1.6 0 0 0 1.6
21-09-2019 22.3 (13:40) 15.5 (00:00) 18.9 7.78 (16:40) 4.72 (10:30) 0 0 0 0 0
20-09-2019 24 (17:30) 14.3 (00:00) 19.2 6.11 (18:20) 3.89 (18:20) 0 0 0 0 0
19-09-2019 23.7 (10:50) 15.5 (00:00) 19.6 5 (00:30) 3.89 (01:50) 0 0 0 0 0
18-09-2019 24.4 (14:40) 16.7 (00:00) 20.6 4.72 (16:30) 2.78 (23:50) 0 0 0 0 0
17-09-2019 26.6 (16:40) 20.1 (00:00) 23.4 9.72 (15:40) 5.83 (15:40) 0 0 0 0 0
16-09-2019 25.4 (16:40) 17.8 (00:00) 21.6 19.44 (13:20) 7.78 (10:10) 3.2 0 0 3 0.2

Gráficas

Temp. máximas Temp. mínimas Temp. medias Precipitaciones Rachas de viento máximas Velocidades máximas media en intervalos de 10 minutos

Datos horarios

Fecha y hora oficial Temperatura (ºC) Velocidad del viento (km/h) Dirección del viento Racha (km/h) Dirección de racha Precipitación (mm) Presión (hPa) Tendencia (hPa) Humedad (%)
2019-10-15 23:00:00 9.1 0 Calma 13 Nordeste 0 -- -- 96
2019-10-15 22:00:00 9.6 0 Calma 10 Nordeste 0 -- -- 97
2019-10-15 21:00:00 9.9 0 Calma 8 Nordeste 0 -- -- 96
2019-10-15 20:00:00 13.6 4 Oeste 11 Oeste 0 -- -- 83
2019-10-15 19:00:00 16.3 5 Oeste 16 Sudoeste 0 -- -- 74
2019-10-15 18:00:00 17.9 9 Oeste 22 Oeste 0 -- -- 69
2019-10-15 17:00:00 17.7 13 Oeste 26 Oeste 0 -- -- 65
2019-10-15 16:00:00 18.6 12 Oeste 22 Oeste 0 -- -- 65
2019-10-15 15:00:00 13.9 3 Este 10 Este 0 -- -- 94
2019-10-15 14:00:00 13.8 4 Este 10 Este 0.2 -- -- 90
2019-10-15 13:00:00 15.2 4 Sudeste 20 Oeste 0 -- -- 83
2019-10-15 12:00:00 15 10 Oeste 18 Oeste 0 -- -- 69
2019-10-15 11:00:00 12.5 4 Oeste 9 Oeste 0 -- -- 94
2019-10-15 10:00:00 11.5 2 Este 8 Este 0 -- -- 98
2019-10-15 09:00:00 10.5 0 Calma 14 Nordeste 0 -- -- 98
2019-10-15 08:00:00 10.1 6 Nordeste 13 Nordeste 0 -- -- 98
2019-10-15 07:00:00 10 3 Este 17 Nordeste 0.2 -- -- 98
2019-10-15 06:00:00 9.7 11 Nordeste 17 Nordeste 0 -- -- 98
2019-10-15 05:00:00 9.7 3 Este 17 Nordeste 0 -- -- 98
2019-10-15 04:00:00 9.8 4 Nordeste 19 Nordeste 0 -- -- 98
2019-10-15 03:00:00 8.8 2 Este 16 Nordeste 0 -- -- 97
2019-10-15 02:00:00 9 7 Nordeste 15 Nordeste 0 -- -- 85
2019-10-15 01:00:00 9 4 Este 17 Nordeste 0 -- -- 86
2019-10-15 00:00:00 10.2 8 Este 22 Nordeste 0 -- -- 76
2019-10-14 23:00:00 10.2 15 Nordeste 24 Nordeste 0 -- -- 74
2019-10-14 22:00:00 10.4 7 Nordeste 13 Este 0 -- -- 64
2019-10-14 21:00:00 10 7 Este 15 Este 0 -- -- 71
2019-10-14 20:00:00 9.1 5 Nordeste 12 Nordeste 0 -- -- 98
2019-10-14 19:00:00 11.4 3 Este 12 Nordeste 0 -- -- 98
2019-10-14 18:00:00 12 3 Este 12 Este 0 -- -- 97
2019-10-14 17:00:00 11.7 3 Este 11 Este 0 -- -- 97
2019-10-14 16:00:00 11.7 2 Este 13 Nordeste 0 -- -- 96
2019-10-14 15:00:00 12.9 3 Este 12 Sudeste 0 -- -- 95
2019-10-14 14:00:00 15.5 4 Este 18 Este 0 -- -- 81
2019-10-14 13:00:00 14 4 Este 15 Sudeste 0 -- -- 86
2019-10-14 12:00:00 11.9 3 Este 17 Sudeste 0 -- -- 97
2019-10-14 11:00:00 11.6 5 Este 17 Este 0 -- -- 97
2019-10-14 10:00:00 11.4 3 Este 17 Nordeste 0 -- -- 97
2019-10-14 09:00:00 10.4 2 Nordeste 16 Este 0 -- -- 97
2019-10-14 08:00:00 10.2 6 Nordeste 20 Nordeste 0 -- -- 96
2019-10-14 07:00:00 10.4 5 Este 26 Nordeste 0 -- -- 91
2019-10-14 06:00:00 10.3 14 Nordeste 24 Nordeste 0 -- -- 93
2019-10-14 05:00:00 12.2 5 Este 15 Nordeste 0 -- -- 48
2019-10-14 04:00:00 13.7 12 Nordeste 17 Nordeste 0 -- -- 37
2019-10-14 03:00:00 10.8 6 Nordeste 18 Nordeste 0 -- -- 68
2019-10-14 02:00:00 11.9 6 Nordeste 15 Nordeste 0 -- -- 58
2019-10-14 01:00:00 12 4 Nordeste 16 Noroeste 0 -- -- 50
2019-10-14 00:00:00 12 3 Nordeste 8 Nordeste 0 -- -- 53
2019-10-13 23:00:00 12.5 2 Oeste 6 Noroeste 0 -- -- 46
2019-10-13 22:00:00 11.2 2 Oeste 11 Oeste 0 -- -- 73
2019-10-13 21:00:00 11.1 3 Sudoeste 13 Oeste 0 -- -- 86
2019-10-13 20:00:00 12.2 4 Oeste 11 Noroeste 0 -- -- 83
2019-10-13 19:00:00 12.6 3 Este 24 Oeste 0 -- -- 85
2019-10-13 18:00:00 16.7 6 Sur 19 Oeste 0 -- -- 68
2019-10-13 17:00:00 16.7 5 Sudeste 12 Sudoeste 0 -- -- 69
2019-10-13 16:00:00 17.7 8 Oeste 26 Oeste 0 -- -- 63
2019-10-13 15:00:00 18.5 8 Oeste 24 Sudoeste 0 -- -- 53
2019-10-13 14:00:00 19.3 6 Sudoeste 25 Oeste 0 -- -- 53
2019-10-13 13:00:00 18.2 12 Oeste 28 Oeste 0 -- -- 37
2019-10-13 12:00:00 15.7 9 Oeste 18 Oeste 0 -- -- 58
2019-10-13 11:00:00 15.3 7 Oeste 12 Oeste 0 -- -- 36
2019-10-13 10:00:00 15.5 6 Oeste 11 Oeste 0 -- -- 26
2019-10-13 09:00:00 12.2 5 Oeste 9 Oeste 0 -- -- 42
2019-10-13 08:00:00 12.4 4 Oeste 7 Oeste 0 -- -- 30
2019-10-13 07:00:00 12.3 3 Oeste 5 Noroeste 0 -- -- 31
2019-10-13 06:00:00 13 4 Oeste 6 Noroeste 0 -- -- 30
2019-10-13 05:00:00 12.4 2 Noroeste 7 Noroeste 0 -- -- 31
2019-10-13 04:00:00 13.3 3 Norte 10 Norte 0 -- -- 31
2019-10-13 03:00:00 13.1 2 Norte 6 Noroeste 0 -- -- 28
2019-10-13 02:00:00 13.8 4 Oeste 6 Noroeste 0 -- -- 28
2019-10-13 01:00:00 13.7 0 Calma 9 Nordeste 0 -- -- 29
2019-10-13 00:00:00 13.8 3 Nordeste 8 Nordeste 0 -- -- 28
2019-10-12 23:00:00 12.5 4 Nordeste 11 Norte 0 -- -- 40
2019-10-12 22:00:00 12.5 3 Sur 9 Sudoeste 0 -- -- 46
2019-10-12 21:00:00 11.9 4 Oeste 10 Oeste 0 -- -- 94
2019-10-12 20:00:00 13.2 3 Oeste 15 Oeste 0 -- -- 89
2019-10-12 19:00:00 14.5 6 Oeste 19 Oeste 0 -- -- 86
2019-10-12 18:00:00 16.2 12 Oeste 24 Oeste 0 -- -- 78
2019-10-12 17:00:00 17.5 10 Oeste 23 Oeste 0 -- -- 71
2019-10-12 16:00:00 19 4 Sudeste 19 Oeste 0 -- -- 65
2019-10-12 15:00:00 18.2 9 Oeste 21 Oeste 0 -- -- 69
2019-10-12 14:00:00 17.2 11 Oeste 23 Oeste 0 -- -- 65
2019-10-12 13:00:00 16.9 9 Oeste 15 Oeste 0 -- -- 60
2019-10-12 12:00:00 15.5 4 Este 16 Sudeste 0 -- -- 70
2019-10-12 11:00:00 11.7 7 Este 18 Este 0 -- -- 89
2019-10-12 10:00:00 10.9 3 Este 22 Nordeste 0 -- -- 91
2019-10-12 09:00:00 10.7 2 Este 9 Este 0 -- -- 76
2019-10-12 08:00:00 10.6 4 Nordeste 11 Nordeste 0 -- -- 59
2019-10-12 07:00:00 14.6 9 Nordeste 14 Nordeste 0 -- -- 32
2019-10-12 06:00:00 14.1 4 Este 14 Nordeste 0 -- -- 34
2019-10-12 05:00:00 12.1 2 Nordeste 13 Nordeste 0 -- -- 35
2019-10-12 04:00:00 9.5 3 Este 25 Nordeste 0 -- -- 94
2019-10-12 03:00:00 9.2 8 Este 21 Nordeste 0 -- -- 84
2019-10-12 02:00:00 14 5 Este 16 Nordeste 0 -- -- 37
2019-10-12 01:00:00 14.2 5 Este 13 Este 0 -- -- 36
2019-10-12 00:00:00 15 8 Nordeste 15 Nordeste 0 -- -- 35
2019-10-11 23:00:00 10.4 8 Nordeste 12 Nordeste 0 -- -- 77
2019-10-11 22:00:00 9.7 0 Calma 10 Nordeste 0 -- -- 96
2019-10-11 21:00:00 10.8 3 Noroeste 10 Oeste 0 -- -- 90
2019-10-11 20:00:00 12.8 6 Oeste 21 Oeste 0 -- -- 91
2019-10-11 19:00:00 14.4 12 Oeste 27 Oeste 0 -- -- 83
2019-10-11 18:00:00 16.1 13 Oeste 30 Oeste 0 -- -- 75
2019-10-11 17:00:00 17.1 18 Oeste 31 Oeste 0 -- -- 70
2019-10-11 16:00:00 17.8 14 Oeste 28 Oeste 0 -- -- 64
2019-10-11 15:00:00 19 6 Oeste 20 Oeste 0 -- -- 59
2019-10-11 14:00:00 18.1 9 Oeste 26 Oeste 0 -- -- 52
2019-10-11 13:00:00 18 6 Oeste 14 Oeste 0 -- -- 48
2019-10-11 12:00:00 16.2 7 Oeste 15 Oeste 0 -- -- 47
2019-10-11 11:00:00 16.7 2 Sudoeste 7 Oeste 0 -- -- 60
2019-10-11 10:00:00 13.4 0 Calma 15 Oeste 0 -- -- 69
2019-10-11 09:00:00 13.9 6 Oeste 16 Oeste 0 -- -- 29
2019-10-11 08:00:00 13.5 6 Oeste 17 Oeste 0 -- -- 27
2019-10-11 07:00:00 14.1 6 Oeste 18 Oeste 0 -- -- 25
2019-10-11 06:00:00 14.1 9 Oeste 17 Oeste 0 -- -- 27
2019-10-11 05:00:00 14.2 6 Oeste 15 Oeste 0 -- -- 26
2019-10-11 04:00:00 14 5 Oeste 14 Oeste 0 -- -- 28
2019-10-11 03:00:00 14.2 6 Oeste 13 Oeste 0 -- -- 30
2019-10-11 02:00:00 14.8 6 Oeste 12 Oeste 0 -- -- 28
2019-10-11 01:00:00 14.6 6 Oeste 14 Oeste 0 -- -- 33
2019-10-11 00:00:00 15.3 6 Oeste 14 Oeste 0 -- -- 29
2019-10-10 23:00:00 14.4 4 Oeste 8 Oeste 0 -- -- 37
2019-10-10 22:00:00 14.3 4 Oeste 9 Oeste 0 -- -- 45
2019-10-10 21:00:00 12.7 3 Sur 12 Sudoeste 0 -- -- 91
2019-10-10 20:00:00 13.7 3 Oeste 13 Oeste 0 -- -- 90
2019-10-10 19:00:00 15 10 Oeste 22 Oeste 0 -- -- 83
2019-10-10 18:00:00 17.8 13 Oeste 26 Oeste 0 -- -- 69
2019-10-10 17:00:00 18.5 12 Oeste 27 Oeste 0 -- -- 65
2019-10-10 16:00:00 18.3 12 Oeste 26 Oeste 0 -- -- 67
2019-10-10 15:00:00 18.1 4 Este 24 Oeste 0 -- -- 69
2019-10-10 14:00:00 18.5 5 Sudeste 15 Oeste 0 -- -- 60
2019-10-10 13:00:00 18.6 3 Este 13 Noroeste 0 -- -- 66
2019-10-10 12:00:00 18.3 5 Sudoeste 13 Oeste 0 -- -- 42
2019-10-10 11:00:00 19.5 2 Este 12 Oeste 0 -- -- 52
2019-10-10 10:00:00 17.6 7 Oeste 13 Oeste 0 -- -- 25
2019-10-10 09:00:00 16.4 4 Oeste 9 Noroeste 0 -- -- 27
2019-10-10 08:00:00 15.4 5 Oeste 9 Oeste 0 -- -- 27
2019-10-10 07:00:00 15.9 3 Oeste 12 Noroeste 0 -- -- 23
2019-10-10 06:00:00 15.1 6 Oeste 8 Oeste 0 -- -- 29
2019-10-10 05:00:00 15.2 5 Oeste 6 Noroeste 0 -- -- 27
2019-10-10 04:00:00 14.1 2 Oeste 7 Noroeste 0 -- -- 26
2019-10-10 03:00:00 15.6 4 Noroeste 7 Oeste 0 -- -- 28
2019-10-10 02:00:00 15.7 4 Noroeste 9 Oeste 0 -- -- 28
2019-10-10 01:00:00 15.9 4 Oeste 12 Oeste 0 -- -- 28
2019-10-10 00:00:00 16.2 7 Oeste 14 Oeste 0 -- -- 28
2019-10-09 23:00:00 16.6 7 Oeste 13 Oeste 0 -- -- 28
2019-10-09 22:00:00 16.8 6 Oeste 14 Oeste 0 -- -- 27
2019-10-09 21:00:00 17.4 10 Oeste 17 Oeste 0 -- -- 29
2019-10-09 20:00:00 17.4 9 Oeste 15 Oeste 0 -- -- 41
2019-10-09 19:00:00 19 8 Oeste 18 Sudoeste 0 -- -- 42
2019-10-09 18:00:00 20.8 9 Oeste 22 Oeste 0 -- -- 29
2019-10-09 17:00:00 21.2 11 Oeste 23 Oeste 0 -- -- 32
2019-10-09 16:00:00 22.8 5 Oeste 17 Oeste 0 -- -- 29
2019-10-09 15:00:00 22 5 Sudoeste 19 Oeste 0 -- -- 34
2019-10-09 14:00:00 21.7 8 Oeste 15 Oeste 0 -- -- 29
2019-10-09 13:00:00 23.2 3 Sudeste 11 Sudeste 0 -- -- 30
2019-10-09 12:00:00 22.5 5 Este 13 Sudeste 0 -- -- 23
2019-10-09 11:00:00 20.3 5 Este 14 Este 0 -- -- 22
2019-10-09 10:00:00 19.6 3 Este 9 Este 0 -- -- 23
2019-10-09 09:00:00 17.8 0 Calma 14 Nordeste 0 -- -- 26
2019-10-09 08:00:00 16.6 4 Nordeste 15 Nordeste 0 -- -- 28
2019-10-09 07:00:00 17.1 12 Nordeste 14 Nordeste 0 -- -- 26
2019-10-09 06:00:00 17 11 Nordeste 15 Nordeste 0 -- -- 27
2019-10-09 05:00:00 17.1 5 Nordeste 15 Nordeste 0 -- -- 29
2019-10-09 04:00:00 16.5 5 Nordeste 14 Nordeste 0 -- -- 33
2019-10-09 03:00:00 15.8 0 Calma 8 Nordeste 0 -- -- 37
2019-10-09 02:00:00 16.2 3 Nordeste 6 Nordeste 0 -- -- 35
2019-10-09 01:00:00 16.6 0 Calma 8 Nordeste 0 -- -- 30
2019-10-09 00:00:00 18.6 0 Calma 8 Nordeste 0 -- -- 18
2019-10-08 23:00:00 17.8 4 Nordeste 9 Nordeste 0 -- -- 27
2019-10-08 22:00:00 20.4 3 Nordeste 8 Norte 0 -- -- 13
2019-10-08 21:00:00 21.6 5 Norte 13 Noroeste 0 -- -- 13
2019-10-08 20:00:00 21.9 3 Noroeste 12 Oeste 0 -- -- 15
2019-10-08 19:00:00 22.5 4 Oeste 13 Oeste 0 -- -- 38
2019-10-08 18:00:00 24.2 8 Oeste 17 Oeste 0 -- -- 39
2019-10-08 17:00:00 26.3 7 Oeste 20 Sudoeste 0 -- -- 25
2019-10-08 16:00:00 25.9 8 Oeste 23 Oeste 0 -- -- 26
2019-10-08 15:00:00 25.7 9 Oeste 28 Oeste 0 -- -- 25
2019-10-08 14:00:00 26 9 Oeste 25 Oeste 0 -- -- 21
2019-10-08 13:00:00 25.7 12 Oeste 28 Oeste 0 -- -- 20
2019-10-08 12:00:00 25.4 10 Oeste 24 Oeste 0 -- -- 18
2019-10-08 11:00:00 24.4 9 Oeste 20 Oeste 0 -- -- 18
2019-10-08 10:00:00 23.3 10 Oeste 17 Oeste 0 -- -- 18
2019-10-08 09:00:00 21.1 10 Oeste 19 Oeste 0 -- -- 18
2019-10-08 08:00:00 20.1 12 Oeste 23 Oeste 0 -- -- 18
2019-10-08 07:00:00 20.5 9 Oeste 22 Oeste 0 -- -- 19
2019-10-08 06:00:00 20.8 10 Oeste 23 Oeste 0 -- -- 19
2019-10-08 05:00:00 20.7 11 Oeste 26 Oeste 0 -- -- 20
2019-10-08 04:00:00 21.2 12 Oeste 21 Oeste 0 -- -- 20
2019-10-08 03:00:00 20.6 8 Oeste 14 Oeste 0 -- -- 22
2019-10-08 02:00:00 20.7 4 Oeste 15 Oeste 0 -- -- 22
2019-10-08 01:00:00 20.9 4 Oeste 14 Oeste 0 -- -- 22
2019-10-08 00:00:00 20.9 3 Noroeste 15 Oeste 0 -- -- 22
2019-10-07 23:00:00 21.2 4 Oeste 12 Oeste 0 -- -- 21
2019-10-07 22:00:00 21.5 5 Noroeste 17 Oeste 0 -- -- 21
2019-10-07 21:00:00 22.1 6 Oeste 19 Noroeste 0 -- -- 22
2019-10-07 20:00:00 22.5 5 Oeste 21 Oeste 0 -- -- 24
2019-10-07 19:00:00 23.7 14 Oeste 24 Sudoeste 0 -- -- 30
2019-10-07 18:00:00 25.5 11 Oeste 28 Oeste 0 -- -- 31
2019-10-07 17:00:00 26.5 12 Oeste 30 Oeste 0 -- -- 27
2019-10-07 16:00:00 26.5 14 Oeste 29 Oeste 0 -- -- 25
2019-10-07 15:00:00 26.3 14 Oeste 30 Oeste 0 -- -- 22
2019-10-07 14:00:00 26.1 11 Oeste 26 Oeste 0 -- -- 25
2019-10-07 13:00:00 25.4 15 Oeste 32 Oeste 0 -- -- 18
2019-10-07 12:00:00 25.3 12 Oeste 23 Oeste 0 -- -- 14
2019-10-07 11:00:00 25 6 Oeste 15 Oeste 0 -- -- 13
2019-10-07 10:00:00 23.4 7 Oeste 13 Oeste 0 -- -- 14
2019-10-07 09:00:00 21.6 2 Oeste 7 Oeste 0 -- -- 15
2019-10-07 08:00:00 20.7 4 Oeste 13 Oeste 0 -- -- 15
2019-10-07 07:00:00 19.4 2 Oeste 8 Oeste 0 -- -- 16
2019-10-07 06:00:00 19.3 2 Oeste 6 Oeste 0 -- -- 16
2019-10-07 05:00:00 19.3 0 Calma 4 Este 0 -- -- 16
2019-10-07 04:00:00 18.7 0 Calma 4 Nordeste 0 -- -- 16
2019-10-07 03:00:00 18.1 2 Nordeste 5 Nordeste 0 -- -- 23
2019-10-07 02:00:00 18.8 4 Noroeste 9 Noroeste 0 -- -- 21
2019-10-07 01:00:00 20.6 5 Oeste 8 Noroeste 0 -- -- 19
2019-10-07 00:00:00 19.4 2 Oeste 8 Sudeste 0 -- -- 21
2019-10-06 23:00:00 20.6 4 Sur 9 Sudoeste 0 -- -- 20
2019-10-06 22:00:00 19.5 2 Sudoeste 5 Oeste 0 -- -- 24
2019-10-06 21:00:00 19 0 Calma 4 Nordeste 0 -- -- 47
2019-10-06 20:00:00 19.6 0 Calma 7 Sudoeste 0 -- -- 57
2019-10-06 19:00:00 22.3 4 Sudoeste 8 Oeste 0 -- -- 53
2019-10-06 18:00:00 22 4 Este 14 Oeste 0 -- -- 47
2019-10-06 17:00:00 24.1 7 Oeste 18 Oeste 0 -- -- 42
2019-10-06 16:00:00 23.5 8 Oeste 19 Oeste 0 -- -- 45
2019-10-06 15:00:00 24.2 5 Sudoeste 15 Sur 0 -- -- 43
2019-10-06 14:00:00 21.7 4 Sudeste 10 Sudeste 0 -- -- 58
2019-10-06 13:00:00 23.3 5 Sudeste 13 Este 0 -- -- 34
2019-10-06 12:00:00 23.8 4 Este 12 Nordeste 0 -- -- 20
2019-10-06 11:00:00 22.2 3 Este 15 Este 0 -- -- 22
2019-10-06 10:00:00 18.5 4 Este 22 Este 0 -- -- 31
2019-10-06 09:00:00 17.4 9 Este 37 Nordeste 0 -- -- 33
2019-10-06 08:00:00 16.7 13 Este 33 Este 0 -- -- 32
2019-10-06 07:00:00 17 14 Este 40 Nordeste 0 -- -- 29
2019-10-06 06:00:00 16.7 25 Este 40 Nordeste 0 -- -- 29
2019-10-06 05:00:00 16.3 18 Este 41 Nordeste 0 -- -- 34
2019-10-06 04:00:00 15.3 11 Este 43 Este 0 -- -- 41
2019-10-06 03:00:00 16.9 22 Nordeste 39 Nordeste 0 -- -- 30
2019-10-06 02:00:00 16.5 17 Este 36 Nordeste 0 -- -- 34
2019-10-06 01:00:00 16.4 10 Este 32 Este 0 -- -- 36
2019-10-06 00:00:00 16.8 15 Este 35 Nordeste 0 -- -- 35
2019-10-05 23:00:00 16.5 9 Este 33 Nordeste 0 -- -- 38
2019-10-05 22:00:00 16.3 22 Nordeste 36 Nordeste 0 -- -- 39
2019-10-05 21:00:00 16.3 22 Nordeste 37 Este 0 -- -- 41
2019-10-05 20:00:00 16.4 15 Nordeste 34 Nordeste 0 -- -- 42
2019-10-05 19:00:00 17.2 7 Este 34 Este 0 -- -- 42
2019-10-05 18:00:00 17.8 9 Este 40 Este 0 -- -- 48
2019-10-05 17:00:00 18.6 9 Este 39 Sudeste 0 -- -- 42
2019-10-05 16:00:00 19.4 14 Este 42 Este 0 -- -- 44
2019-10-05 15:00:00 19.6 20 Este 42 Sudeste 0 -- -- 41
2019-10-05 14:00:00 19 12 Este 45 Este 0 -- -- 46
2019-10-05 13:00:00 19.6 10 Este 43 Sudeste 0 -- -- 42
2019-10-05 12:00:00 19 13 Este 38 Este 0 -- -- 47
2019-10-05 11:00:00 18.8 13 Este 50 Este 0 -- -- 41
2019-10-05 10:00:00 16.1 9 Este 38 Nordeste 0 -- -- 58
2019-10-05 09:00:00 15.6 9 Este 40 Nordeste 0 -- -- 58
2019-10-05 08:00:00 14.6 20 Nordeste 41 Nordeste 0 -- -- 52
2019-10-05 07:00:00 14.5 8 Este 41 Este 0 -- -- 57
2019-10-05 06:00:00 15.5 12 Este 45 Nordeste 0 -- -- 45
2019-10-05 05:00:00 15.7 10 Este 48 Nordeste 0 -- -- 36
2019-10-05 04:00:00 16.4 18 Este 46 Este 0 -- -- 33
2019-10-05 03:00:00 16.9 10 Este 43 Este 0 -- -- 31
2019-10-05 02:00:00 16.4 7 Este 40 Nordeste 0 -- -- 35
2019-10-05 01:00:00 16.8 13 Este 49 Nordeste 0 -- -- 32
2019-10-05 00:00:00 17.6 16 Este 42 Este 0 -- -- 29
2019-10-04 23:00:00 18.3 17 Este 45 Este 0 -- -- 27
2019-10-04 22:00:00 18.2 16 Este 39 Este 0 -- -- 28
2019-10-04 21:00:00 18.2 12 Este 38 Sudeste 0 -- -- 26
2019-10-04 20:00:00 19.2 16 Este 37 Sudeste 0 -- -- 22
2019-10-04 19:00:00 20.8 21 Este 50 Sudeste 0 -- -- 22
2019-10-04 18:00:00 21.7 29 Sudeste 53 Sudeste 0 -- -- 24
2019-10-04 17:00:00 22.3 22 Este 65 Sudeste 0 -- -- 23
2019-10-04 16:00:00 22.7 25 Este 53 Sudeste 0 -- -- 21
2019-10-04 15:00:00 22.7 23 Este 55 Este 0 -- -- 19
2019-10-04 14:00:00 22.6 23 Este 48 Este 0 -- -- 23
2019-10-04 13:00:00 22 24 Este 53 Este 0 -- -- 23
2019-10-04 12:00:00 21.5 19 Este 57 Sudeste 0 -- -- 26
2019-10-04 11:00:00 20.8 19 Este 58 Este 0 -- -- 29
2019-10-04 10:00:00 19.8 16 Este 48 Sudeste 0 -- -- 28
2019-10-04 09:00:00 18.7 21 Este 48 Este 0 -- -- 30
2019-10-04 08:00:00 18 16 Este 57 Nordeste 0 -- -- 31
2019-10-04 07:00:00 17.9 22 Este 57 Nordeste 0 -- -- 30
2019-10-04 06:00:00 18 19 Este 52 Sudeste 0 -- -- 30
2019-10-04 05:00:00 17.8 17 Este 53 Este 0 -- -- 31
2019-10-04 04:00:00 17.7 25 Este 53 Sudeste 0 -- -- 32
2019-10-04 03:00:00 18.3 18 Este 53 Este 0 -- -- 29
2019-10-04 02:00:00 18.4 13 Este 52 Este 0 -- -- 31
2019-10-04 01:00:00 18.7 22 Este 51 Este 0 -- -- 29
2019-10-04 00:00:00 18.4 25 Este 55 Sudeste 0 -- -- 31
2019-10-03 23:00:00 18.7 19 Este 51 Este 0 -- -- 29
2019-10-03 22:00:00 18.5 18 Este 64 Este 0 -- -- 29
2019-10-03 21:00:00 19 16 Este 45 Nordeste 0 -- -- 27
2019-10-03 20:00:00 19.2 17 Este 49 Sudeste 0 -- -- 27
2019-10-03 19:00:00 20 14 Este 46 Este 0 -- -- 23
2019-10-03 18:00:00 21.2 22 Este 53 Este 0 -- -- 21
2019-10-03 17:00:00 22 24 Este 51 Sudeste 0 -- -- 24
2019-10-03 16:00:00 23.8 19 Este 46 Sudeste 0 -- -- 20
2019-10-03 15:00:00 23.8 14 Este 41 Este 0 -- -- 23
2019-10-03 14:00:00 24.2 17 Este 42 Este 0 -- -- 24
2019-10-03 13:00:00 23.6 19 Este 46 Sudeste 0 -- -- 22
2019-10-03 12:00:00 22.4 15 Este 48 Este 0 -- -- 28
2019-10-03 11:00:00 22.6 15 Este 46 Sudeste 0 -- -- 25
2019-10-03 10:00:00 21.1 16 Este 38 Sudeste 0 -- -- 27
2019-10-03 09:00:00 20.3 13 Este 37 Sudeste 0 -- -- 24
2019-10-03 08:00:00 19.3 3 Nordeste 19 Este 0 -- -- 19
2019-10-03 07:00:00 18.7 4 Este 18 Este 0 -- -- 21
2019-10-03 06:00:00 19.6 6 Este 27 Este 0 -- -- 17
2019-10-03 05:00:00 20.4 3 Nordeste 23 Sudeste 0 -- -- 14
2019-10-03 04:00:00 21.6 6 Nordeste 30 Nordeste 0 -- -- 13
2019-10-03 03:00:00 21.8 6 Nordeste 27 Nordeste 0 -- -- 13
2019-10-03 02:00:00 21.8 6 Este 26 Este 0 -- -- 13
2019-10-03 01:00:00 22.9 11 Nordeste 28 Nordeste 0 -- -- 14
2019-10-03 00:00:00 23.2 6 Nordeste 26 Nordeste 0 -- -- 14
2019-10-02 23:00:00 23.2 11 Este 28 Nordeste 0 -- -- 14
2019-10-02 22:00:00 23.6 16 Este 26 Nordeste 0 -- -- 15
2019-10-02 21:00:00 24 16 Nordeste 23 Nordeste 0 -- -- 18
2019-10-02 20:00:00 24 10 Este 17 Nordeste 0 -- -- 18
2019-10-02 19:00:00 24.4 4 Este 10 Nordeste 0 -- -- 18
2019-10-02 18:00:00 26.2 3 Nordeste 18 Nordeste 0 -- -- 18
2019-10-02 17:00:00 27.3 4 Nordeste 19 Nordeste 0 -- -- 16
2019-10-02 16:00:00 27.3 5 Este 26 Este 0 -- -- 16
2019-10-02 15:00:00 27.3 5 Nordeste 27 Sudeste 0 -- -- 16
2019-10-02 14:00:00 27.6 5 Este 22 Este 0 -- -- 16
2019-10-02 13:00:00 27.2 5 Este 28 Nordeste 0 -- -- 16
2019-10-02 12:00:00 27 8 Este 28 Nordeste 0 -- -- 16
2019-10-02 11:00:00 26.4 6 Este 22 Este 0 -- -- 17
2019-10-02 10:00:00 24.7 5 Este 21 Nordeste 0 -- -- 18
2019-10-02 09:00:00 23.7 8 Este 26 Nordeste 0 -- -- 19
2019-10-02 08:00:00 22.3 17 Este 27 Este 0 -- -- 19
2019-10-02 07:00:00 23.6 14 Este 25 Este 0 -- -- 18
2019-10-02 06:00:00 23.8 12 Este 23 Nordeste 0 -- -- 17
2019-10-02 05:00:00 23.7 10 Este 19 Este 0 -- -- 17
2019-10-02 04:00:00 23.6 9 Este 21 Nordeste 0 -- -- 17
2019-10-02 03:00:00 23.4 9 Este 19 Nordeste 0 -- -- 17
2019-10-02 02:00:00 24 6 Este 19 Nordeste 0 -- -- 16
2019-10-02 01:00:00 26 13 Nordeste 19 Nordeste 0 -- -- 14
2019-10-02 00:00:00 26.1 13 Nordeste 18 Este 0 -- -- 14
2019-10-01 23:00:00 26.2 12 Nordeste 17 Nordeste 0 -- -- 14
2019-10-01 22:00:00 26.2 12 Nordeste 17 Este 0 -- -- 14
2019-10-01 21:00:00 26 11 Nordeste 16 Nordeste 0 -- -- 15
2019-10-01 20:00:00 26.2 9 Nordeste 13 Nordeste 0 -- -- 16
2019-10-01 19:00:00 26.9 0 Calma 9 Sudeste 0 -- -- 17
2019-10-01 18:00:00 28 4 Este 16 Nordeste 0 -- -- 16
2019-10-01 17:00:00 28.7 4 Este 16 Nordeste 0 -- -- 16
2019-10-01 16:00:00 28.7 5 Este 14 Nordeste 0 -- -- 15
2019-10-01 15:00:00 27.2 4 Este 17 Nordeste 0 -- -- 19
2019-10-01 14:00:00 27.8 5 Este 19 Sudeste 0 -- -- 20
2019-10-01 13:00:00 27.9 6 Este 18 Este 0 -- -- 21
2019-10-01 12:00:00 27.3 6 Este 16 Nordeste 0 -- -- 18
2019-10-01 11:00:00 26.4 4 Este 14 Este 0 -- -- 18
2019-10-01 10:00:00 25.1 3 Este 15 Nordeste 0 -- -- 18
2019-10-01 09:00:00 23.8 6 Este 13 Este 0 -- -- 20
2019-10-01 08:00:00 22.7 5 Nordeste 12 Nordeste 0 -- -- 20
2019-10-01 07:00:00 22.6 7 Nordeste 12 Nordeste 0 -- -- 20
2019-10-01 06:00:00 24.3 3 Noroeste 5 Noroeste 0 -- -- 15
2019-10-01 05:00:00 24.1 0 Calma 7 Nordeste 0 -- -- 16
2019-10-01 04:00:00 23.5 3 Nordeste 15 Oeste 0 -- -- 19
2019-10-01 03:00:00 26.1 3 Oeste 14 Sur 0 -- -- 14
2019-10-01 02:00:00 25.1 5 Sudeste 18 Sudeste 0 -- -- 16
2019-10-01 01:00:00 26.2 6 Sudeste 17 Sudeste 0 -- -- 14
2019-10-01 00:00:00 26.9 5 Sudeste 13 Sudeste 0 -- -- 13
2019-09-30 23:00:00 27.1 8 Sudeste 17 Sudeste 0 -- -- 13
2019-09-30 22:00:00 25.8 2 Sudeste 5 Este 0 -- -- 14
2019-09-30 21:00:00 25.4 2 Sudeste 6 Sudeste 0 -- -- 20
2019-09-30 20:00:00 26.9 0 Calma 6 Sudeste 0 -- -- 21
2019-09-30 19:00:00 29.2 3 Norte 16 Oeste 0 -- -- 22
2019-09-30 18:00:00 30.6 3 Este 14 Oeste 0 -- -- 18
2019-09-30 17:00:00 30.9 5 Sudeste 15 Oeste 0 -- -- 28
2019-09-30 16:00:00 31.1 4 Este 11 Este 0 -- -- 21
2019-09-30 15:00:00 31.7 5 Sudeste 16 Noroeste 0 -- -- 18
2019-09-30 14:00:00 30.7 7 Oeste 22 Este 0 -- -- 15
2019-09-30 13:00:00 30.4 4 Este 14 Sudeste 0 -- -- 17
2019-09-30 12:00:00 30.4 5 Sudeste 19 Sur 0 -- -- 17
2019-09-30 11:00:00 29.6 3 Este 14 Este 0 -- -- 16
2019-09-30 10:00:00 27.8 4 Este 15 Nordeste 0 -- -- 17
2019-09-30 09:00:00 25.1 10 Nordeste 20 Nordeste 0 -- -- 18
2019-09-30 08:00:00 24.6 14 Nordeste 22 Nordeste 0 -- -- 18
2019-09-30 07:00:00 23.9 16 Nordeste 26 Este 0 -- -- 18
2019-09-30 06:00:00 23.9 17 Nordeste 27 Nordeste 0 -- -- 18
2019-09-30 05:00:00 23.1 18 Nordeste 24 Nordeste 0 -- -- 19
2019-09-30 04:00:00 23.3 17 Este 27 Nordeste 0 -- -- 18
2019-09-30 03:00:00 23.1 9 Este 19 Nordeste 0 -- -- 17
2019-09-30 02:00:00 22.9 3 Este 15 Este 0 -- -- 18
2019-09-30 01:00:00 24.2 9 Este 18 Este 0 -- -- 17
2019-09-30 00:00:00 25.2 10 Nordeste 14 Nordeste 0 -- -- 16
2019-09-29 23:00:00 24.8 7 Nordeste 19 Este 0 -- -- 17
2019-09-29 22:00:00 25.1 7 Nordeste 21 Nordeste 0 -- -- 16
2019-09-29 21:00:00 25.1 10 Nordeste 17 Nordeste 0 -- -- 17
2019-09-29 20:00:00 25.1 4 Nordeste 7 Nordeste 0 -- -- 20
2019-09-29 19:00:00 28.2 0 Calma 9 Nordeste 0 -- -- 20
2019-09-29 18:00:00 26.4 0 Calma 12 Este 0 -- -- 29
2019-09-29 17:00:00 29.6 4 Este 15 Sudeste 0 -- -- 22
2019-09-29 16:00:00 30.2 4 Este 13 Este 0 -- -- 25
2019-09-29 15:00:00 30.3 6 Sudeste 17 Este 0 -- -- 25
2019-09-29 14:00:00 28.4 5 Este 15 Este 0 -- -- 25
2019-09-29 13:00:00 28.6 4 Sudeste 13 Oeste 0 -- -- 24
2019-09-29 12:00:00 25.7 4 Este 13 Nordeste 0 -- -- 24
2019-09-29 11:00:00 26.6 4 Oeste 9 Este 0 -- -- 18
2019-09-29 10:00:00 25.5 4 Este 11 Este 0 -- -- 20
2019-09-29 09:00:00 24.2 3 Este 12 Sudeste 0 -- -- 20
2019-09-29 08:00:00 21.9 0 Calma 7 Sudeste 0 -- -- 23
2019-09-29 07:00:00 21.2 3 Nordeste 7 Este 0 -- -- 24
2019-09-29 06:00:00 22.1 3 Oeste 7 Noroeste 0 -- -- 22
2019-09-29 05:00:00 22.6 3 Oeste 9 Noroeste 0 -- -- 22
2019-09-29 04:00:00 23.3 5 Noroeste 10 Noroeste 0 -- -- 21
2019-09-29 03:00:00 22.5 2 Noroeste 8 Noroeste 0 -- -- 24
2019-09-29 02:00:00 23.5 6 Noroeste 13 Noroeste 0 -- -- 23
2019-09-29 01:00:00 22.6 6 Noroeste 10 Noroeste 0 -- -- 25
2019-09-29 00:00:00 22.2 0 Calma 10 Noroeste 0 -- -- 25
2019-09-28 23:00:00 22.4 4 Noroeste 14 Noroeste 0 -- -- 24
2019-09-28 22:00:00 23.2 5 Noroeste 10 Oeste 0 -- -- 23
2019-09-28 21:00:00 23.1 3 Noroeste 14 Oeste 0 -- -- 25
2019-09-28 20:00:00 24.1 5 Oeste 14 Oeste 0 -- -- 27
2019-09-28 19:00:00 25.9 4 Oeste 13 Oeste 0 -- -- 30
2019-09-28 18:00:00 26.9 7 Oeste 18 Oeste 0 -- -- 29
2019-09-28 17:00:00 26.5 8 Oeste 21 Oeste 0 -- -- 28
2019-09-28 16:00:00 26.7 11 Oeste 25 Sudoeste 0 -- -- 27
2019-09-28 15:00:00 27.3 12 Oeste 24 Oeste 0 -- -- 25
2019-09-28 14:00:00 27.3 12 Oeste 24 Oeste 0 -- -- 24
2019-09-28 13:00:00 26.3 11 Oeste 24 Oeste 0 -- -- 23
2019-09-28 12:00:00 25.5 10 Oeste 18 Oeste 0 -- -- 23
2019-09-28 11:00:00 24.9 13 Oeste 19 Oeste 0 -- -- 24
2019-09-28 10:00:00 23.4 8 Oeste 15 Oeste 0 -- -- 26
2019-09-28 09:00:00 22.5 5 Oeste 13 Oeste 0 -- -- 27
2019-09-28 08:00:00 21.3 5 Noroeste 10 Sudoeste 0 -- -- 29
2019-09-28 07:00:00 21 5 Oeste 13 Oeste 0 -- -- 27
2019-09-28 06:00:00 20.7 5 Oeste 13 Oeste 0 -- -- 29
2019-09-28 05:00:00 21.1 9 Oeste 18 Noroeste 0 -- -- 26
2019-09-28 04:00:00 21.3 10 Oeste 19 Oeste 0 -- -- 24
2019-09-28 03:00:00 21.6 9 Oeste 17 Oeste 0 -- -- 23
2019-09-28 02:00:00 21.3 6 Oeste 16 Oeste 0 -- -- 26
2019-09-28 01:00:00 21.5 7 Oeste 19 Oeste 0 -- -- 25
2019-09-28 00:00:00 21 4 Oeste 10 Noroeste 0 -- -- 26
2019-09-27 23:00:00 21.6 6 Oeste 13 Oeste 0 -- -- 25
2019-09-27 22:00:00 21.7 4 Oeste 13 Oeste 0 -- -- 28
2019-09-27 21:00:00 22.5 9 Oeste 18 Oeste 0 -- -- 29
2019-09-27 20:00:00 23 5 Oeste 22 Oeste 0 -- -- 30
2019-09-27 19:00:00 24.7 10 Oeste 24 Oeste 0 -- -- 32
2019-09-27 18:00:00 24.9 15 Oeste 26 Oeste 0 -- -- 30
2019-09-27 17:00:00 25.2 15 Oeste 27 Oeste 0 -- -- 33
2019-09-27 16:00:00 25.6 14 Oeste 25 Oeste 0 -- -- 32
2019-09-27 15:00:00 26 12 Oeste 28 Oeste 0 -- -- 31
2019-09-27 14:00:00 26.3 12 Oeste 31 Oeste 0 -- -- 28
2019-09-27 13:00:00 26.1 11 Oeste 29 Oeste 0 -- -- 23
2019-09-27 12:00:00 25.9 14 Oeste 30 Oeste 0 -- -- 19
2019-09-27 11:00:00 25.3 10 Oeste 26 Oeste 0 -- -- 19
2019-09-27 10:00:00 23.4 6 Oeste 16 Oeste 0 -- -- 19
2019-09-27 09:00:00 22.2 5 Oeste 15 Oeste 0 -- -- 20
2019-09-27 08:00:00 21.2 7 Oeste 13 Oeste 0 -- -- 19
2019-09-27 07:00:00 21.2 5 Oeste 16 Oeste 0 -- -- 19
2019-09-27 06:00:00 21.5 7 Oeste 17 Oeste 0 -- -- 19
2019-09-27 05:00:00 21.6 9 Oeste 18 Oeste 0 -- -- 19
2019-09-27 04:00:00 21.7 6 Oeste 15 Oeste 0 -- -- 18
2019-09-27 03:00:00 22.2 10 Oeste 17 Oeste 0 -- -- 17
2019-09-27 02:00:00 22.2 10 Oeste 17 Oeste 0 -- -- 17
2019-09-27 01:00:00 22 6 Oeste 14 Oeste 0 -- -- 18
2019-09-27 00:00:00 22.1 6 Oeste 16 Oeste 0 -- -- 19
2019-09-26 23:00:00 22.1 6 Oeste 17 Oeste 0 -- -- 20
2019-09-26 22:00:00 21.4 5 Oeste 15 Oeste 0 -- -- 24
2019-09-26 21:00:00 21.5 8 Oeste 15 Oeste 0 -- -- 34
2019-09-26 20:00:00 22.2 6 Oeste 19 Oeste 0 -- -- 38
2019-09-26 19:00:00 23.8 11 Oeste 23 Oeste 0 -- -- 41
2019-09-26 18:00:00 24.6 13 Oeste 24 Oeste 0 -- -- 41
2019-09-26 17:00:00 26.2 9 Oeste 30 Oeste 0 -- -- 40
2019-09-26 16:00:00 25.8 14 Oeste 30 Oeste 0 -- -- 33
2019-09-26 15:00:00 25 13 Oeste 26 Oeste 0 -- -- 35
2019-09-26 14:00:00 25.6 14 Oeste 25 Oeste 0 -- -- 30
2019-09-26 13:00:00 25.8 10 Oeste 23 Oeste 0 -- -- 28
2019-09-26 12:00:00 24.2 7 Oeste 15 Oeste 0 -- -- 29
2019-09-26 11:00:00 23.9 6 Sudoeste 11 Sudoeste 0 -- -- 23
2019-09-26 10:00:00 23.4 5 Oeste 12 Noroeste 0 -- -- 13
2019-09-26 09:00:00 21.8 4 Oeste 13 Oeste 0 -- -- 18
2019-09-26 08:00:00 21.2 6 Oeste 11 Noroeste 0 -- -- 17
2019-09-26 07:00:00 18.7 4 Noroeste 5 Noroeste 0 -- -- 31
2019-09-26 06:00:00 19.8 4 Noroeste 7 Oeste 0 -- -- 29
2019-09-26 05:00:00 18.9 3 Noroeste 6 Oeste 0 -- -- 31
2019-09-26 04:00:00 20 4 Noroeste 10 Oeste 0 -- -- 30
2019-09-26 03:00:00 20.1 7 Noroeste 11 Noroeste 0 -- -- 31
2019-09-26 02:00:00 18.7 4 Noroeste 6 Noroeste 0 -- -- 37
2019-09-26 01:00:00 17.4 3 Nordeste 8 Nordeste 0 -- -- 43
2019-09-26 00:00:00 17 3 Este 9 Nordeste 0 -- -- 34
2019-09-25 23:00:00 16.9 3 Este 10 Nordeste 0 -- -- 31
2019-09-25 22:00:00 16.6 0 Calma 10 Este 0 -- -- 32
2019-09-25 21:00:00 16.9 2 Este 8 Nordeste 0 -- -- 32
2019-09-25 20:00:00 18.9 3 Este 9 Nordeste 0 -- -- 44
2019-09-25 19:00:00 18.4 4 Este 10 Este 0 -- -- 67
2019-09-25 18:00:00 22 3 Este 9 Este 0 -- -- 36
2019-09-25 17:00:00 21.4 4 Este 11 Sudeste 0 -- -- 43
2019-09-25 16:00:00 21.3 5 Este 14 Este 0 -- -- 40
2019-09-25 15:00:00 21.4 4 Este 17 Este 0 -- -- 42
2019-09-25 14:00:00 21.3 5 Este 14 Este 0 -- -- 32
2019-09-25 13:00:00 20.2 5 Este 17 Este 0 -- -- 29
2019-09-25 12:00:00 19.8 4 Este 15 Sudeste 0 -- -- 32
2019-09-25 11:00:00 19.3 4 Este 15 Este 0 -- -- 29
2019-09-25 10:00:00 18.6 3 Este 13 Este 0 -- -- 27
2019-09-25 09:00:00 17.5 4 Este 21 Nordeste 0 -- -- 23
2019-09-25 08:00:00 16.1 14 Nordeste 20 Nordeste 0 -- -- 44
2019-09-25 07:00:00 15.8 5 Este 20 Nordeste 0 -- -- 48
2019-09-25 06:00:00 16.7 11 Nordeste 18 Nordeste 0 -- -- 53
2019-09-25 05:00:00 16.9 13 Nordeste 23 Nordeste 0 -- -- 50
2019-09-25 04:00:00 17.6 10 Nordeste 17 Nordeste 0 -- -- 42
2019-09-25 03:00:00 17.9 14 Nordeste 23 Nordeste 0 -- -- 35
2019-09-25 02:00:00 18.4 17 Nordeste 20 Nordeste 0 -- -- 16
2019-09-25 01:00:00 18.3 15 Nordeste 24 Este 0 -- -- 10
2019-09-25 00:00:00 17.8 12 Este 30 Este 0 -- -- 11
2019-09-24 23:00:00 17.5 14 Este 23 Este 0 -- -- 13
2019-09-24 22:00:00 17.3 13 Este 24 Nordeste 0 -- -- 15
2019-09-24 21:00:00 16.8 17 Nordeste 28 Nordeste 0 -- -- 30
2019-09-24 20:00:00 16.4 15 Nordeste 25 Nordeste 0 -- -- 44
2019-09-24 19:00:00 18.2 8 Nordeste 24 Nordeste 0 -- -- 46
2019-09-24 18:00:00 18.7 4 Este 16 Este 0 -- -- 49
2019-09-24 17:00:00 18.2 4 Este 16 Este 0 -- -- 66
2019-09-24 16:00:00 18.3 4 Este 14 Sudeste 0 -- -- 69
2019-09-24 15:00:00 19 4 Este 12 Sudeste 0 -- -- 64
2019-09-24 14:00:00 19.9 3 Este 12 Este 0 -- -- 60
2019-09-24 13:00:00 18.7 5 Este 11 Este 0 -- -- 71
2019-09-24 12:00:00 21.6 4 Este 10 Sudeste 0 -- -- 49
2019-09-24 11:00:00 20.5 4 Este 10 Sudeste 0 -- -- 51
2019-09-24 10:00:00 18.8 4 Este 8 Este 0 -- -- 49
2019-09-24 09:00:00 17.3 0 Calma 5 Nordeste 0 -- -- 54
2019-09-24 08:00:00 16 0 Calma 3 Noroeste 0 -- -- 52
2019-09-24 07:00:00 15.8 2 Oeste 6 Sudeste 0 -- -- 51
2019-09-24 06:00:00 15.6 0 Calma 4 Sudeste 0 -- -- 54
2019-09-24 05:00:00 15.3 0 Calma 3 Noroeste 0 -- -- 60
2019-09-24 04:00:00 15.9 0 Calma 5 Nordeste 0 -- -- 58
2019-09-24 03:00:00 15.3 4 Nordeste 5 Nordeste 0 -- -- 60
2019-09-24 02:00:00 15.7 0 Calma 5 Nordeste 0 -- -- 69
2019-09-24 01:00:00 15.3 5 Nordeste 8 Nordeste 0 -- -- 63
2019-09-24 00:00:00 15.2 6 Nordeste 14 Nordeste 0 -- -- 63
2019-09-23 23:00:00 14.9 6 Este 19 Nordeste 0 -- -- 56
2019-09-23 22:00:00 15.1 6 Este 18 Este 0 -- -- 62
2019-09-23 21:00:00 14.6 10 Nordeste 20 Nordeste 0 -- -- 58
2019-09-23 20:00:00 17 13 Nordeste 17 Nordeste 0 -- -- 53
2019-09-23 19:00:00 17.3 3 Este 9 Oeste 0 -- -- 75
2019-09-23 18:00:00 15.1 2 Este 9 Nordeste 0 -- -- 86
2019-09-23 17:00:00 19 3 Este 12 Sur 0 -- -- 73
2019-09-23 16:00:00 22.5 6 Sudoeste 16 Oeste 0 -- -- 57
2019-09-23 15:00:00 19.7 5 Este 12 Este 0 -- -- 71
2019-09-23 14:00:00 18 4 Este 12 Sudeste 0 -- -- 80
2019-09-23 13:00:00 17.4 4 Este 12 Este 0 -- -- 84
2019-09-23 12:00:00 17.3 4 Este 17 Nordeste 0 -- -- 86
2019-09-23 11:00:00 19 4 Este 12 Este 0 -- -- 62
2019-09-23 10:00:00 18.2 3 Este 15 Este 0 -- -- 69
2019-09-23 09:00:00 16.2 3 Este 6 Nordeste 0 -- -- 71
2019-09-23 08:00:00 15.1 2 Nordeste 5 Nordeste 0 -- -- 73
2019-09-23 07:00:00 14 0 Calma 5 Nordeste 0 -- -- 84
2019-09-23 06:00:00 14.7 2 Nordeste 10 Nordeste 0 -- -- 79
2019-09-23 05:00:00 13.7 3 Este 12 Nordeste 0 -- -- 90
2019-09-23 04:00:00 14.3 8 Este 20 Este 0 -- -- 86
2019-09-23 03:00:00 14.2 10 Este 29 Nordeste 0 -- -- 90
2019-09-23 02:00:00 14.6 18 Nordeste 29 Nordeste 0 -- -- 89
2019-09-23 01:00:00 14.1 14 Este 39 Nordeste 0.2 -- -- 98
2019-09-23 00:00:00 14.4 6 Este 39 Este 0.2 -- -- 98
2019-09-22 23:00:00 14.3 5 Nordeste 35 Sudeste 0.4 -- -- 97
2019-09-22 22:00:00 14.6 10 Este 33 Sudeste 0.6 -- -- 97
2019-09-22 21:00:00 15.1 10 Este 32 Nordeste 0.4 -- -- 97
2019-09-22 20:00:00 15.1 9 Este 25 Sudeste 0 -- -- 96
2019-09-22 19:00:00 16.1 3 Este 12 Este 0 -- -- 92
2019-09-22 18:00:00 17.4 4 Este 18 Sudeste 0 -- -- 85
2019-09-22 17:00:00 17.8 6 Este 21 Nordeste 0 -- -- 84
2019-09-22 16:00:00 19.1 5 Este 18 Sudeste 0 -- -- 80
2019-09-22 15:00:00 20.2 8 Este 19 Sudeste 0 -- -- 72
2019-09-22 14:00:00 19.6 9 Este 23 Nordeste 0 -- -- 73
2019-09-22 13:00:00 19.2 9 Este 28 Sudeste 0 -- -- 73
2019-09-22 12:00:00 18.5 8 Este 24 Este 0 -- -- 72
2019-09-22 11:00:00 18.2 5 Este 16 Nordeste 0 -- -- 74
2019-09-22 10:00:00 16.7 4 Este 21 Nordeste 0 -- -- 70
2019-09-22 09:00:00 14.4 3 Nordeste 27 Nordeste 0 -- -- 89
2019-09-22 08:00:00 13.5 14 Este 35 Nordeste 0 -- -- 91
2019-09-22 07:00:00 13.8 18 Nordeste 33 Nordeste 0 -- -- 84
2019-09-22 06:00:00 13.3 9 Este 22 Nordeste 0 -- -- 80
2019-09-22 05:00:00 14.2 10 Este 26 Este 0 -- -- 72
2019-09-22 04:00:00 15 9 Nordeste 21 Nordeste 0 -- -- 63
2019-09-22 03:00:00 14.4 5 Este 22 Nordeste 0 -- -- 61
2019-09-22 02:00:00 14.8 15 Nordeste 25 Nordeste 0 -- -- 57
2019-09-22 01:00:00 15.7 10 Nordeste 18 Norte 0 -- -- 53
2019-09-22 00:00:00 16.2 5 Nordeste 9 Nordeste 0 -- -- 44
2019-09-21 23:00:00 16.1 2 Este 7 Este 0 -- -- 50
2019-09-21 22:00:00 15.7 2 Oeste 7 Sudoeste 0 -- -- 56
2019-09-21 21:00:00 15.6 4 Oeste 10 Oeste 0 -- -- 78
2019-09-21 20:00:00 17 6 Oeste 20 Oeste 0 -- -- 74
2019-09-21 19:00:00 19.4 11 Oeste 23 Oeste 0 -- -- 64
2019-09-21 18:00:00 21.2 12 Oeste 27 Oeste 0 -- -- 54
2019-09-21 17:00:00 21.6 13 Oeste 28 Oeste 0 -- -- 51
2019-09-21 16:00:00 21.6 13 Oeste 27 Oeste 0 -- -- 53
2019-09-21 15:00:00 21.8 14 Oeste 28 Oeste 0 -- -- 48
2019-09-21 14:00:00 21.9 14 Oeste 24 Oeste 0 -- -- 31
2019-09-21 13:00:00 21.3 14 Oeste 27 Oeste 0 -- -- 25
2019-09-21 12:00:00 20.8 13 Oeste 25 Oeste 0 -- -- 23
2019-09-21 11:00:00 20.7 12 Oeste 25 Oeste 0 -- -- 14
2019-09-21 10:00:00 19.4 13 Oeste 22 Oeste 0 -- -- 15
2019-09-21 09:00:00 19 9 Oeste 21 Oeste 0 -- -- 14
2019-09-21 08:00:00 18.7 11 Oeste 21 Oeste 0 -- -- 15
2019-09-21 07:00:00 18.4 8 Oeste 21 Oeste 0 -- -- 16
2019-09-21 06:00:00 18.4 8 Oeste 13 Oeste 0 -- -- 16
2019-09-21 05:00:00 18.1 4 Oeste 12 Oeste 0 -- -- 18
2019-09-21 04:00:00 18.8 3 Oeste 12 Oeste 0 -- -- 12
2019-09-21 03:00:00 18.9 5 Oeste 13 Oeste 0 -- -- 13
2019-09-21 02:00:00 19.5 5 Oeste 13 Oeste 0 -- -- 12
2019-09-21 01:00:00 18.3 5 Oeste 12 Oeste 0 -- -- 22
2019-09-21 00:00:00 18.3 6 Oeste 12 Oeste 0 -- -- 25
2019-09-20 23:00:00 18.9 6 Oeste 12 Oeste 0 -- -- 24
2019-09-20 22:00:00 18.7 6 Oeste 14 Oeste 0 -- -- 27
2019-09-20 21:00:00 18.8 9 Oeste 15 Oeste 0 -- -- 41
2019-09-20 20:00:00 18.6 8 Oeste 17 Oeste 0 -- -- 70
2019-09-20 19:00:00 21.3 11 Oeste 22 Oeste 0 -- -- 60
2019-09-20 18:00:00 23.2 10 Oeste 22 Oeste 0 -- -- 50
2019-09-20 17:00:00 23.1 11 Oeste 21 Oeste 0 -- -- 45
2019-09-20 16:00:00 22.2 11 Oeste 20 Oeste 0 -- -- 55
2019-09-20 15:00:00 22.4 3 Sudeste 13 Sudeste 0 -- -- 56
2019-09-20 14:00:00 22.1 4 Sudeste 13 Sudeste 0 -- -- 57
2019-09-20 13:00:00 21.6 5 Sur 13 Sudoeste 0 -- -- 56
2019-09-20 12:00:00 19.9 4 Este 12 Este 0 -- -- 56
2019-09-20 11:00:00 20.5 4 Sudoeste 10 Oeste 0 -- -- 27
2019-09-20 10:00:00 18.6 5 Oeste 10 Oeste 0 -- -- 28
2019-09-20 09:00:00 20 4 Oeste 6 Oeste 0 -- -- 24
2019-09-20 08:00:00 18 3 Oeste 6 Nordeste 0 -- -- 24
2019-09-20 07:00:00 14.9 4 Nordeste 9 Sudeste 0 -- -- 50
2019-09-20 06:00:00 15.2 3 Nordeste 5 Nordeste 0 -- -- 29
2019-09-20 05:00:00 15.9 2 Este 10 Nordeste 0 -- -- 26
2019-09-20 04:00:00 16.4 6 Este 12 Nordeste 0 -- -- 21
2019-09-20 03:00:00 16.7 3 Este 11 Nordeste 0 -- -- 21
2019-09-20 02:00:00 16.8 3 Nordeste 14 Nordeste 0 -- -- 21
2019-09-20 01:00:00 17.5 5 Este 19 Nordeste 0 -- -- 20
2019-09-20 00:00:00 18.6 6 Este 17 Nordeste 0 -- -- 17
2019-09-19 23:00:00 20.1 9 Norte 16 Nordeste 0 -- -- 12
2019-09-19 22:00:00 18.8 4 Nordeste 13 Este 0 -- -- 18
2019-09-19 21:00:00 19.1 5 Nordeste 12 Este 0 -- -- 15
2019-09-19 20:00:00 16.7 4 Este 12 Nordeste 0 -- -- 73
2019-09-19 19:00:00 21.6 0 Calma 13 Noroeste 0 -- -- 61
2019-09-19 18:00:00 22.4 2 Este 14 Oeste 0 -- -- 59
2019-09-19 17:00:00 23.2 3 Sudeste 15 Sur 0 -- -- 56
2019-09-19 16:00:00 22 4 Este 12 Este 0 -- -- 58
2019-09-19 15:00:00 22.6 4 Sudeste 14 Sudeste 0 -- -- 54
2019-09-19 14:00:00 21.9 5 Este 15 Sudeste 0 -- -- 49
2019-09-19 13:00:00 21 5 Este 13 Sudeste 0 -- -- 52
2019-09-19 12:00:00 20.4 5 Este 12 Sudeste 0 -- -- 55
2019-09-19 11:00:00 22.9 4 Este 10 Nordeste 0 -- -- 35
2019-09-19 10:00:00 22.2 3 Este 9 Nordeste 0 -- -- 17
2019-09-19 09:00:00 20.5 0 Calma 7 Noroeste 0 -- -- 17
2019-09-19 08:00:00 19.4 5 Noroeste 8 Noroeste 0 -- -- 12
2019-09-19 07:00:00 17.1 0 Calma 4 Este 0 -- -- 18
2019-09-19 06:00:00 16.4 3 Este 10 Este 0 -- -- 20
2019-09-19 05:00:00 17.2 5 Este 8 Nordeste 0 -- -- 19
2019-09-19 04:00:00 18 4 Nordeste 10 Nordeste 0 -- -- 18
2019-09-19 03:00:00 17.8 8 Nordeste 15 Nordeste 0 -- -- 19
2019-09-19 02:00:00 17.8 13 Nordeste 18 Nordeste 0 -- -- 20
2019-09-19 01:00:00 18.2 11 Nordeste 18 Nordeste 0 -- -- 18
2019-09-19 00:00:00 17.7 5 Este 14 Este 0 -- -- 20
2019-09-18 23:00:00 16.9 8 Nordeste 14 Nordeste 0 -- -- 31
2019-09-18 22:00:00 16.7 7 Nordeste 12 Este 0 -- -- 52
2019-09-18 21:00:00 18.2 6 Este 10 Este 0 -- -- 57
2019-09-18 20:00:00 19.5 3 Sudoeste 8 Oeste 0 -- -- 63
2019-09-18 19:00:00 23.7 3 Oeste 14 Oeste 0 -- -- 41
2019-09-18 18:00:00 22.2 7 Oeste 16 Oeste 0 -- -- 44
2019-09-18 17:00:00 23.3 7 Sudoeste 17 Oeste 0 -- -- 41
2019-09-18 16:00:00 22.9 4 Este 13 Oeste 0 -- -- 56
2019-09-18 15:00:00 23.9 4 Sudeste 15 Oeste 0 -- -- 48
2019-09-18 14:00:00 24 4 Sudeste 14 Sudoeste 0 -- -- 51
2019-09-18 13:00:00 23.5 4 Sudeste 10 Este 0 -- -- 47
2019-09-18 12:00:00 23.4 4 Sudeste 10 Oeste 0 -- -- 36
2019-09-18 11:00:00 23.5 4 Sudeste 10 Este 0 -- -- 20
2019-09-18 10:00:00 21 4 Este 9 Nordeste 0 -- -- 17
2019-09-18 09:00:00 20.8 0 Calma 4 Oeste 0 -- -- 15
2019-09-18 08:00:00 18.8 2 Oeste 5 Noroeste 0 -- -- 17
2019-09-18 07:00:00 17.8 3 Oeste 5 Oeste 0 -- -- 18
2019-09-18 06:00:00 18.6 0 Calma 8 Noroeste 0 -- -- 17
2019-09-18 05:00:00 19.4 3 Oeste 7 Oeste 0 -- -- 18
2019-09-18 04:00:00 19.9 3 Oeste 6 Oeste 0 -- -- 19
2019-09-18 03:00:00 20.5 3 Oeste 6 Noroeste 0 -- -- 17
2019-09-18 02:00:00 20.6 4 Oeste 12 Oeste 0 -- -- 17
2019-09-18 01:00:00 20.4 3 Oeste 8 Noroeste 0 -- -- 17
2019-09-18 00:00:00 21 5 Oeste 9 Oeste 0 -- -- 20
2019-09-17 23:00:00 21.2 4 Oeste 9 Oeste 0 -- -- 19
2019-09-17 22:00:00 20.7 3 Noroeste 6 Oeste 0 -- -- 43
2019-09-17 21:00:00 21.7 2 Oeste 4 Sudoeste 0 -- -- 41
2019-09-17 20:00:00 23.1 0 Calma 8 Oeste 0 -- -- 42